Tiempo atmosférico en la estación meteorológica de A Coruña Aeropuerto, A Coruña (98 m.)



Fecha
DESCASC
Temp. máxima en grados centígrados (hora)
DESCASC
Temp. mínima en grados centígrados (hora)
DESCASC
Temp. media en grados centígrados
DESCASC
Racha de viento máxima en m/sg (hora)
DESCASC
Velocidad máxima media en intervalos de 10 minutos(hora)
DESCASC
Precipitaciones diarias en mm
DESCASC
Precipitaciones de 00:00 a 06:00 en mm
DESCASC
Precipitaciones de 06:00 a 12:00 en mm
DESCASC
Precipitaciones de 12:00 a 18:00 en mm
DESCASC
Precipitaciones de 18:00 a 24:00 en mm
DESCASC
28-02-2021 15.2 (14:30) 1.8 (08:20) 8.5 8.89 (15:40) 5.28 (15:40) 0 0 0 0 0
27-02-2021 16.7 (14:30) 5.6 (06:20) 11.2 8.33 (14:50) 5.56 (14:50) 0 0 0 0 0
26-02-2021 17.4 (15:20) 5.3 (07:50) 11.3 7.22 (18:20) 4.44 (18:50) 0 0 0 0 0
25-02-2021 11.2 (15:40) 8.5 (00:00) 9.8 7.22 (16:40) 4.17 (16:50) 8.9 3.5 5.4 0 0
24-02-2021 19 (14:30) 9 (00:00) 14 20.56 (12:40) 12.5 (14:10) 5.2 0 0 0 5.2
23-02-2021 15.8 (15:20) 11 (00:00) 13.4 14.44 (02:50) 10.28 (03:00) 0 0 0 0 0
22-02-2021 15.5 (16:50) 2.5 (00:00) 9 11.67 (23:00) 6.94 (18:00) 0 0 0 0 0
21-02-2021 12.1 (15:40) 5.2 (00:00) 8.7 9.17 (15:50) 5 (16:00) 5 3.8 1 0.2 0
20-02-2021 15.8 (06:30) 9.6 (00:00) 12.7 25.83 (06:00) 15 (05:30) 17.8 2.9 13.2 1.7 0
19-02-2021 15.9 (13:20) 9.9 (00:00) 12.9 22.22 (21:10) 13.33 (22:20) 1.5 0 0 0.1 1.4
18-02-2021 14 (17:00) 8.6 (00:00) 11.3 15.28 (01:40) 10.28 (02:00) 4.4 3 1.4 0 0
17-02-2021 16.1 (14:40) 8.4 (00:00) 12.3 18.06 (14:20) 11.67 (14:20) 5.8 0 0 0 5.8
16-02-2021 16 (15:00) 9.9 (00:00) 12.9 20 (03:10) 12.22 (03:10) 12 1 11 0 0
15-02-2021 22.1 (16:10) 13.4 (00:00) 17.8 17.5 (12:30) 12.22 (16:40) 0 0 0 0 0
14-02-2021 18.5 (14:40) 12.4 (00:00) 15.4 20.56 (21:30) 10.83 (15:20) 0 0 0 0 0
13-02-2021 15.6 (16:30) 11.2 (00:00) 13.4 12.78 (23:10) 8.06 (23:59) 0 0 0 0 0
12-02-2021 16.9 (14:40) 9.9 (00:00) 13.4 13.33 (04:00) 8.06 (04:00) 3.7 3.6 0.1 0 0
11-02-2021 15.2 (13:30) 10.1 (00:00) 12.7 11.39 (00:10) 7.22 (00:10) 37.5 2.7 14.7 12.6 7.5
10-02-2021 14.7 (14:50) 7.2 (00:00) 10.9 13.89 (23:30) 9.44 (23:40) 3.2 2.7 0.3 0 0.2
09-02-2021 11.9 (06:00) 6.9 (00:00) 9.4 18.61 (07:00) 10 (07:50) 13.8 5 4.3 0.4 4.1
08-02-2021 12.3 (14:50) 7.5 (00:00) 9.9 14.44 (23:59) 9.17 (23:59) 5.6 0.2 1.9 3.1 0.4
07-02-2021 11.1 (17:30) 4.3 (00:00) 7.7 16.94 (13:40) 11.67 (13:40) 21 0 1.5 0 19.5
06-02-2021 10.9 (14:20) 4.8 (00:00) 7.8 12.78 (03:40) 7.22 (07:40) 0.3 0 0 0 0.3
05-02-2021 11.3 (15:00) 6.9 (00:00) 9.1 10.28 (15:40) 5.83 (17:10) 0.4 0 0 0 0.4
04-02-2021 15.5 (16:20) 6.8 (00:00) 11.2 14.44 (00:10) 8.33 (00:10) 6.9 0.3 0 0.5 6.1
03-02-2021 14.8 (13:40) 9.4 (00:00) 12.1 18.06 (17:40) 11.39 (17:40) 2.8 0 1.3 0.9 0.6
02-02-2021 15.9 (14:20) 12.6 (00:00) 14.3 18.06 (21:50) 11.67 (00:40) 12.4 0 2.9 4.4 5.1
01-02-2021 15.1 (14:30) 13 (00:00) 14.1 16.11 (23:20) 10.56 (14:30) 0 0 0 0 0
31-01-2021 17.6 (14:40) 10 (00:00) 13.8 16.11 (16:30) 8.89 (19:00) 12.3 7.2 5.1 0 0

Gráficas

Temp. máximas Temp. mínimas Temp. medias Precipitaciones Rachas de viento máximas Velocidades máximas media en intervalos de 10 minutos

Datos horarios

Fecha y hora oficial Temperatura (ºC) Velocidad del viento (km/h) Dirección del viento Racha (km/h) Dirección de racha Precipitación (mm) Presión (hPa) Tendencia (hPa) Humedad (%)
2021-03-01 23:00:00 10.5 6 Sudeste 11 Sudeste 0.6 1005.6 1.2 90
2021-03-01 22:00:00 11.1 4 Sur 11 Sur 0 1005.2 1.2 85
2021-03-01 21:00:00 11.3 6 Sur 18 Sudeste 0 1004.8 1.4 84
2021-03-01 20:00:00 11.7 6 Sur 13 Sur 0 1004.4 1.1 83
2021-03-01 19:00:00 12.6 7 Sur 21 Sur 0 1004 1 78
2021-03-01 18:00:00 13 15 Sur 33 Sudoeste 0 1003.4 0.5 74
2021-03-01 17:00:00 13.6 16 Sudoeste 32 Sudoeste 0 1003.3 0.1 74
2021-03-01 16:00:00 13.9 14 Sudoeste 39 Sudoeste 0 1003 -0.6 74
2021-03-01 15:00:00 13.7 19 Sudoeste 33 Sur 0 1002.9 -0.9 79
2021-03-01 14:00:00 11.5 8 Sudeste 17 Sur 0.2 1003.2 -- 89
2021-03-01 13:00:00 9.4 7 Sur 13 Sudeste 2 1003.6 -- 96
2021-03-01 12:00:00 7.9 6 Sur 13 Sudeste 0.4 1003.8 -- 93
2021-03-01 11:00:00 7 10 Sur 18 Sur 0 1003.6 -- 94
2021-03-01 10:00:00 5.9 9 Sur 17 Sur 0.2 1003.3 -- 95
2021-03-01 09:00:00 3.8 9 Sur 17 Sur 0.6 1003.2 -- 96
2021-03-01 08:00:00 3.3 7 Sur 21 Sur 0 1003.1 -- 96
2021-03-01 07:00:00 2.7 12 Sur 17 Sur 0 1003.3 -- 96
2021-03-01 06:00:00 2.4 9 Sur 11 Sur 0 1003.2 -- 96
2021-03-01 05:00:00 3 7 Sur 13 Sur 0 1003.4 -- 96
2021-03-01 04:00:00 3.1 10 Sur -- -- 0 1003.6 -- 95
2021-03-01 03:00:00 3.5 9 Sur 11 Sur 0 1004 -- 95
2021-03-01 02:00:00 4.2 8 Sur 13 Sur 0 1004.3 -- 93
2021-03-01 01:00:00 4.8 5 Sur 8 Sur 0 1004.5 -- 89
2021-03-01 00:00:00 6.9 0 Calma 2 Oeste 0 1004.8 -- 81
2021-02-28 23:00:00 7.2 0 Calma 5 Sur 0 1004.9 -- 81
2021-02-28 22:00:00 8.1 0 Calma 11 Nordeste 0 1005.2 -- 77
2021-02-28 21:00:00 8.9 9 Nordeste 17 Este 0 1005.2 -- 74
2021-02-28 20:00:00 9.8 9 Nordeste 24 Nordeste 0 1005 -- 68
2021-02-28 19:00:00 11.5 11 Nordeste 24 Nordeste 0 1004.6 -- 62
2021-02-28 18:00:00 13.6 14 Nordeste 30 Nordeste 0 1004.3 -- 54
2021-02-28 17:00:00 14.8 13 Norte 26 Norte 0 1004.4 -- 50
2021-02-28 16:00:00 14.8 18 Nordeste 32 Nordeste 0 1004.8 -- 52
2021-02-28 15:00:00 14.8 11 Norte 21 Nordeste 0 1005.5 -- 54
2021-02-28 14:00:00 14.5 10 Norte 21 Norte 0 1006.6 -- 52
2021-02-28 13:00:00 13.9 9 Nordeste 21 Este 0 1007.5 -- 52
2021-02-28 12:00:00 11.8 4 Nordeste 11 Nordeste 0 1008.3 -- 60
2021-02-28 11:00:00 9.6 4 Noroeste 9 Noroeste 0 1008.8 -- 64
2021-02-28 10:00:00 7.4 0 Calma 8 Sur 0 1009.1 -- 82
2021-02-28 09:00:00 3.4 0 Calma 8 Sudoeste 0 1009 -- 93
2021-02-28 08:00:00 3.3 0 Calma 9 Sur 0 1008.9 -- 94
2021-02-28 07:00:00 3.3 3 Sudoeste 5 Sur 0 1009.3 -- 92
2021-02-28 06:00:00 3.3 2 Sudeste 8 Sur 0 1009.4 -- 96
2021-02-28 05:00:00 3.5 0 Calma 8 Sur 0 1009.6 -- 96
2021-02-28 04:00:00 4.4 3 Sur 8 Sur 0 1010.3 -- 92
2021-02-28 03:00:00 6.2 3 Norte 8 Norte 0 1010.8 -- 80
2021-02-28 02:00:00 7.4 4 Este 9 Norte 0 1011.4 -- 75
2021-02-28 01:00:00 7.1 4 Noroeste 8 Noroeste 0 1011.6 -- 81
2021-02-28 00:00:00 8.3 2 Sudeste 9 Sudeste 0 1011.9 -- 77
2021-02-27 23:00:00 9 6 Sudeste 13 Este 0 1012.2 -- 74
2021-02-27 22:00:00 9.5 8 Este 18 Este 0 1012.2 -- 73
2021-02-27 21:00:00 10.2 9 Este 22 Este 0 1012.5 -- 72
2021-02-27 20:00:00 11.1 14 Este 24 Este 0 1012.6 -- 72
2021-02-27 19:00:00 12.8 16 Este 30 Nordeste 0 1012.3 -- 69
2021-02-27 18:00:00 14.7 18 Este 28 Este 0 1012.2 -- 64
2021-02-27 17:00:00 15.7 19 Este 28 Este 0 1012.6 -- 61
2021-02-27 16:00:00 16.3 17 Este 30 Nordeste 0 1013.1 -- 62
2021-02-27 15:00:00 16.5 17 Este 30 Nordeste 0 1013.8 -- 62
2021-02-27 14:00:00 16.4 17 Este 24 Nordeste 0 1014.7 -- 62
2021-02-27 13:00:00 15.6 11 Nordeste 18 Nordeste 0 1015.5 -- 66
2021-02-27 12:00:00 14.7 6 Este 13 Este 0 1016 -- 67
2021-02-27 11:00:00 12.7 0 Calma 5 Sudeste 0 1016.4 -- 76
2021-02-27 10:00:00 8.9 0 Calma 11 Sudoeste 0 1016.5 -- 94
2021-02-27 09:00:00 6.4 3 Sur 11 Sur 0 1016.4 -- 96
2021-02-27 08:00:00 6.1 5 Sur 9 Sur 0 1016.1 -- 95
2021-02-27 07:00:00 6.2 0 Calma 8 Sur 0 1016.2 -- 96
2021-02-27 06:00:00 5.9 6 Sudoeste 8 Sur 0 1016.1 -- 95
2021-02-27 05:00:00 6.9 2 Sudoeste 8 Sur 0 1016.3 -- 94
2021-02-27 04:00:00 7.7 2 Oeste 4 Oeste 0 1016.5 -- 93
2021-02-27 03:00:00 8.5 2 Oeste 4 Oeste 0 1017 -- 90
2021-02-27 02:00:00 8.7 2 Este 8 Sur 0 1017.4 -- 92
2021-02-27 01:00:00 10.3 0 Calma 4 Norte 0 1017.6 -- 84
2021-02-27 00:00:00 10.1 2 Norte 8 Este 0 1017.8 -- 84
2021-02-26 23:00:00 10.1 3 Norte 9 Este 0 1017.8 -- 84
2021-02-26 22:00:00 11.1 3 Norte 11 Sudeste 0 1017.5 -- 80
2021-02-26 21:00:00 11.8 5 Este 21 Este 0 1017.1 -- 77
2021-02-26 20:00:00 12.4 8 Este 22 Este 0 1016.9 -- 76
2021-02-26 19:00:00 13.9 15 Este 26 Este 0 1016.3 -- 70
2021-02-26 18:00:00 15.8 13 Este 22 Nordeste 0 1015.8 -- 67
2021-02-26 17:00:00 16.4 10 Nordeste 21 Norte 0 1015.8 -- 66
2021-02-26 16:00:00 17.2 10 Este 18 Este 0 1015.9 -- 63
2021-02-26 15:00:00 17.2 12 Sudeste 18 Sudeste 0 1016.3 -- 61
2021-02-26 14:00:00 16.5 9 Sudeste 21 Sur 0 1017.1 -- 65
2021-02-26 13:00:00 15.6 13 Sudeste 18 Sur 0 1017.9 -- 69
2021-02-26 12:00:00 14.4 7 Sudeste 13 Este 0 1018.2 -- 73
2021-02-26 11:00:00 11.7 0 Calma 8 Sudoeste 0 1018.3 -- 83
2021-02-26 10:00:00 9.4 0 Calma 8 Sudoeste 0 1017.9 -- 97
2021-02-26 09:00:00 6.8 2 Noroeste 5 Sudoeste 0 1017.8 -- 98
2021-02-26 08:00:00 5.9 2 Oeste 8 Sur 0 1017.4 -- 97
2021-02-26 07:00:00 6.7 5 Sudoeste 8 Sur 0 1017.4 -- 96
2021-02-26 06:00:00 8.4 0 Calma 8 Sur 0 1017.6 -- 95
2021-02-26 05:00:00 9.7 0 Calma 8 Norte 0 1017.7 -- 90
2021-02-26 04:00:00 10 4 Noroeste 11 Norte 0 1018.2 -- 90
2021-02-26 03:00:00 10.6 5 Norte 17 Norte 0 1018.4 -- 87
2021-02-26 02:00:00 10.6 9 Norte 17 Norte 0 1018.8 -- 87
2021-02-26 01:00:00 10.4 8 Norte 21 Norte 0 1018.7 -- 88
2021-02-26 00:00:00 10.6 12 Norte 21 Norte 0 1019.1 -- 87
2021-02-25 23:00:00 10.5 9 Norte 22 Norte 0 1019.2 -- 88
2021-02-25 22:00:00 10.5 12 Norte 24 Norte 0 1019.2 -- 86
2021-02-25 21:00:00 10.3 11 Norte 22 Norte 0 1018.9 -- 90
2021-02-25 20:00:00 10.5 8 Norte 24 Norte 0 1018.7 -- 88
2021-02-25 19:00:00 10.8 10 Norte 21 Norte 0 1018.1 -- 88
2021-02-25 18:00:00 10.7 9 Norte 26 Norte 0 1017.8 -- 91
2021-02-25 17:00:00 10.8 14 Norte 26 Norte 0 1017.3 -- 88
2021-02-25 16:00:00 11 8 Norte 24 Norte 0 1017.1 -- 86
2021-02-25 15:00:00 10.5 14 Norte 24 Norte 0 1017.3 -- 88
2021-02-25 14:00:00 10.6 7 Norte 15 Norte 0 1017.3 -- 90
2021-02-25 13:00:00 10.3 5 Norte 9 Norte 0 1017.6 -- 91
2021-02-25 12:00:00 10 5 Norte 8 Norte 0.3 1017.6 -- 93
2021-02-25 11:00:00 9.6 6 Norte 11 Norte 0.4 1017.3 -- 94
2021-02-25 10:00:00 9.2 3 Nordeste 18 Norte 0.2 1016.9 -- 94
2021-02-25 09:00:00 9.1 6 Norte 15 Norte 1.7 1016 -- 96
2021-02-25 08:00:00 9.1 4 Norte 18 Norte 1.8 1015.2 -- 97
2021-02-25 07:00:00 8.6 4 Norte 9 Sur 1 1014.5 -- 96
2021-02-25 06:00:00 8.8 3 Sudeste 8 Sur 0.3 1014.4 -- 95
2021-02-25 05:00:00 8.8 3 Oeste 9 Noroeste 0 1014 -- 93
2021-02-25 04:00:00 8.7 2 Sudoeste 8 Sur 0.3 1013.2 -- 95
2021-02-25 03:00:00 8.7 7 Sur 21 Sudeste 0.5 1013.5 -- 96
2021-02-25 02:00:00 8.8 10 Sudeste 13 Sur 1.1 1013.7 -- 96
2021-02-25 01:00:00 8.9 6 Sur 13 Sur 1.3 1014.2 -- 95
2021-02-25 00:00:00 9 9 Sur 13 Sur 1.6 1013.7 -- 96
2021-02-24 23:00:00 9.2 8 Sur 11 Sur 1.2 1013.6 -- 95
2021-02-24 22:00:00 9.4 3 Oeste 18 Oeste 2 1013.1 -- 91
2021-02-24 21:00:00 9.9 9 Noroeste 39 Noroeste 0.4 1012.6 -- 91
2021-02-24 20:00:00 11.2 21 Noroeste 45 Sudoeste 0 1012.1 -- 81
2021-02-24 19:00:00 14.8 26 Sudoeste 42 Sudoeste 0 1010.8 -- 62
2021-02-24 18:00:00 16 23 Sudoeste 41 Sur 0 1010.3 -- 55
2021-02-24 17:00:00 18 20 Sur 65 Sur 0 1010 -- 44
2021-02-24 16:00:00 18.6 32 Sur 55 Sur 0 1009.3 -- 40
2021-02-24 15:00:00 18.4 35 Sur 67 Sur 0 1009.4 -- 39
2021-02-24 14:00:00 18.8 38 Sur 71 Sur 0 1009.7 -- 39
2021-02-24 13:00:00 18.2 40 Sur 74 Sur 0 1010.1 -- 39
2021-02-24 12:00:00 17.1 35 Sur 54 Sudeste 0 1010.6 -- 44
2021-02-24 11:00:00 15.7 26 Sur 45 Sur 0 1011.1 -- 46
2021-02-24 10:00:00 13.1 18 Sudeste 30 Sur 0 1011.2 -0.3 55
2021-02-24 09:00:00 11.9 14 Sudeste 30 Sudeste 0 1011.5 -- 57
2021-02-24 08:00:00 12.2 20 Sudeste 37 Sur 0 1011.4 -0.3 54
2021-02-24 07:00:00 12 17 Sur 28 Sur 0 1011.5 -- 55
2021-02-24 06:00:00 11.9 15 Sudeste 24 Sudeste 0 1011.7 -1.1 57
2021-02-24 05:00:00 12.4 12 Sudeste 21 Sudeste 0 1011.7 -- 56
2021-02-24 04:00:00 13.5 10 Sur 21 Sur 0 1012.4 -- 54
2021-02-24 03:00:00 12.9 8 Sur 24 Sur 0 1012.8 -- 59
2021-02-24 02:00:00 12.9 12 Sudeste 26 Sudeste 0 1012.8 -0.6 65
2021-02-24 01:00:00 13.8 17 Sudeste 24 Sudeste 0 1012.8 -- 71
2021-02-24 00:00:00 13.7 16 Sudeste 33 Sudeste 0 1013.2 -- 74
2021-02-23 23:00:00 13.9 21 Sur 37 Sur 0 1013.4 -- 74
2021-02-23 22:00:00 14.3 21 Sur 42 Sur 0 1013.8 -- 74
2021-02-23 21:00:00 14.3 31 Sur 45 Sur 0 1013.9 1.3 75
2021-02-23 20:00:00 14.5 23 Sur 39 Sur 0 1013.4 -- 77
2021-02-23 19:00:00 14.7 21 Sur 41 Sur 0 1013 1.1 77
2021-02-23 18:00:00 15 28 Sur 46 Sur 0 1012.6 -- 75
2021-02-23 17:00:00 15.4 30 Sur 48 Sur 0 1012.1 -- 73
2021-02-23 16:00:00 15.7 22 Sur 50 Sur 0 1011.9 -- 71
2021-02-23 15:00:00 15.5 18 Sur 41 Sur 0 1011.6 -- 69
2021-02-23 14:00:00 14.5 15 Sur 37 Sudoeste 0 1012.1 -- 72
2021-02-23 13:00:00 13.7 24 Sur 45 Sur 0 1012.3 -- 74
2021-02-23 12:00:00 13.6 26 Sur 39 Sudoeste 0 1012.3 -- 68
2021-02-23 11:00:00 13.5 27 Sur 41 Sur 0 1011.9 -- 69
2021-02-23 10:00:00 12.8 18 Sur 35 Sur 0 1011.4 -- 65
2021-02-23 09:00:00 12.6 17 Sur 37 Sur 0 1010.8 -- 61
2021-02-23 08:00:00 11.7 17 Sur 32 Sur 0 1009.9 -- 62
2021-02-23 07:00:00 11.2 22 Sudeste 35 Sudeste 0 1009.4 -- 62
2021-02-23 06:00:00 11.6 26 Sudeste 42 Sur 0 1009.1 -- 60
2021-02-23 05:00:00 11.9 27 Sur 45 Sur 0 1008.6 -- 60
2021-02-23 04:00:00 12.3 25 Sudeste 52 Sur 0 1008.9 -- 58
2021-02-23 03:00:00 12.7 37 Sur 52 Sur 0 1008.6 -- 56
2021-02-23 02:00:00 12.1 23 Sur 37 Sur 0 1009.1 -- 59
2021-02-23 01:00:00 11.9 23 Sur 41 Sur 0 1008.9 -- 60
2021-02-23 00:00:00 12.1 17 Sudeste 35 Sudeste 0 1008.8 -- 61
2021-02-22 23:00:00 11.8 18 Sudeste 42 Sudeste 0 1008.4 -- 63
2021-02-22 22:00:00 11.7 23 Sur 35 Sur 0 1008.2 -- 65
2021-02-22 21:00:00 11.9 19 Sur 32 Sudeste 0 1008.1 -- 65
2021-02-22 20:00:00 11.9 14 Sur 28 Sudeste 0 1007.8 -- 64
2021-02-22 19:00:00 12.7 19 Sur 37 Sur 0 1007 -- 61
2021-02-22 18:00:00 14.1 25 Sur 35 Sur 0 1006.6 -- 54
2021-02-22 17:00:00 15.2 24 Sur 39 Sur 0 1006.5 -- 51
2021-02-22 16:00:00 15.3 19 Sur 33 Sur 0 1006.2 -- 51
2021-02-22 15:00:00 14.9 21 Sur 33 Sur 0 1005.6 -- 52
2021-02-22 14:00:00 13.8 23 Sur 35 Sur 0 1006.6 -- 55
2021-02-22 13:00:00 13 15 Sur 33 Sur 0 1006.8 -- 57
2021-02-22 12:00:00 11.8 16 Sur 26 Sur 0 1006.5 -- 62
2021-02-22 11:00:00 9.1 16 Sur 22 Sur 0 1006.2 -- 74
2021-02-22 10:00:00 5.9 15 Sudeste 21 Sudeste 0 1006 -- 84
2021-02-22 09:00:00 3 13 Sudeste 24 Sudeste 0 1005.3 -- 93
2021-02-22 08:00:00 2.8 14 Sur 17 Sudeste 0 1005 -- 94
2021-02-22 07:00:00 2.9 14 Sur 24 Sur 0 1004.6 1.3 96
2021-02-22 06:00:00 3.1 14 Sur 18 Sudeste 0 1003.9 -- 96
2021-02-22 05:00:00 3 12 Sur 17 Sur 0 1003.3 -- 96
2021-02-22 04:00:00 3.4 15 Sur 18 Sur 0 1003.3 -- 95
2021-02-22 03:00:00 3.6 13 Sur 17 Sur 0 1002.8 -- 95
2021-02-22 02:00:00 4.1 13 Sudeste 17 Sudeste 0 1002.5 -- 95
2021-02-22 01:00:00 4.8 10 Sur 17 Sudeste 0 1002.1 -- 93
2021-02-22 00:00:00 5.3 5 Sur 13 Sudeste 0 1001.7 -- 92
2021-02-21 23:00:00 5.8 4 Sur 13 Sur 0 1001.1 -- 92
2021-02-21 22:00:00 6.7 9 Sur 13 Oeste 0 1000.3 2.6 89
2021-02-21 21:00:00 8.9 9 Oeste 17 Oeste 0 999.6 -- 74
2021-02-21 20:00:00 9.2 6 Oeste 13 Noroeste 0 998.9 -- 75
2021-02-21 19:00:00 10.2 7 Oeste 21 Noroeste 0 997.7 -- 69
2021-02-21 18:00:00 11 12 Noroeste 28 Oeste 0 997 -- 65
2021-02-21 17:00:00 11.4 16 Noroeste 28 Noroeste 0 996.3 -- 63
2021-02-21 16:00:00 10.1 18 Noroeste 33 Noroeste 0.1 995.8 -- 76
2021-02-21 15:00:00 11.8 9 Noroeste 28 Noroeste 0 995.2 -- 65
2021-02-21 14:00:00 10 10 Norte 24 Norte 0 995.1 -- 77
2021-02-21 13:00:00 10.5 11 Oeste 21 Oeste 0.1 995.2 -- 79
2021-02-21 12:00:00 9.6 8 Sudeste 13 Sur 0 994.8 -- 87
2021-02-21 11:00:00 7.8 10 Sudeste 13 Sudeste 0 994.3 -- 93
2021-02-21 10:00:00 7.2 11 Sur 13 Sur 0 993.9 -- 95
2021-02-21 09:00:00 7 12 Sudeste 17 Sudeste 0.2 993.1 -- 95
2021-02-21 08:00:00 7.1 7 Sudeste 11 Sur 0.5 992.5 -- 96
2021-02-21 07:00:00 7.1 10 Este 18 Sudeste 0.3 992.1 -- 95
2021-02-21 06:00:00 7.3 8 Sudeste 22 Sur 0.2 991.7 -- 95
2021-02-21 05:00:00 7.4 17 Sudeste 22 Sudeste 1 991.5 -- 95
2021-02-21 04:00:00 7.8 8 Sudeste 21 Sudeste 0.8 991.9 -- 92
2021-02-21 03:00:00 8.1 12 Sudeste 21 Sudeste 0.4 991.9 -- 92
2021-02-21 02:00:00 8.4 15 Sudeste 21 Sudeste 1.2 992.2 -- 90
2021-02-21 01:00:00 9.6 10 Sur 22 Sur 0.2 992.8 -- 78
2021-02-21 00:00:00 9.7 18 Sur 30 Sudeste 0 992.1 -- 83
2021-02-20 23:00:00 10.5 16 Sudoeste 32 Sur 0 992.4 -- 80
2021-02-20 22:00:00 10.5 18 Sur 32 Sur 0 991.9 -- 79
2021-02-20 21:00:00 10.3 15 Sudeste 24 Sudeste 0 991.7 -- 82
2021-02-20 20:00:00 10.6 12 Sur 26 Sur 0 991.9 -- 83
2021-02-20 19:00:00 11.3 13 Sur 28 Sur 0 991.3 -- 80
2021-02-20 18:00:00 12 12 Sudeste 28 Sur 0 990.7 -- 81
2021-02-20 17:00:00 12.4 17 Sur 42 Sur 0 990.1 -- 76
2021-02-20 16:00:00 13.1 21 Sur 41 Sudoeste 0 989.1 -- 77
2021-02-20 15:00:00 13.4 24 Sudoeste 54 Sudoeste 0 988.6 -- 76
2021-02-20 14:00:00 13.9 32 Sudoeste 61 Sudoeste 0 988 -- 80
2021-02-20 13:00:00 13.6 40 Sudoeste 67 Sur 1.7 987.6 -- 84
2021-02-20 12:00:00 13.1 27 Sur 74 Sur 3.4 986.8 -- 88
2021-02-20 11:00:00 13.6 47 Sur 85 Sur 1.3 985.1 -- 83
2021-02-20 10:00:00 13.2 44 Sur 74 Sur 2.6 984.3 -- 84
2021-02-20 09:00:00 12.5 39 Sur 67 Sur 2.5 983.9 0.8 86
2021-02-20 08:00:00 12.9 45 Sur 68 Sur 3.4 984.1 -- 82
2021-02-20 07:00:00 15.2 54 Sur 91 Sur 0 984.3 -- 67
2021-02-20 06:00:00 15.3 48 Sur 93 Sur 0 983.1 -3.9 66
2021-02-20 05:00:00 15.1 46 Sur 72 Sur 0 983.8 -- 65
2021-02-20 04:00:00 13.3 35 Sur 76 Sur 1.1 985.7 -3.4 79
2021-02-20 03:00:00 13.2 41 Sur 68 Sur 0.6 987 -- 81
2021-02-20 02:00:00 13.8 39 Sur 67 Sur 0.5 988 -- 75
2021-02-20 01:00:00 13.9 28 Sur 59 Sur 0.7 989.1 -- 76
2021-02-20 00:00:00 13.7 40 Sur 74 Sur 0.5 990 -- 81
2021-02-19 23:00:00 13.8 39 Sur 72 Sur 0.9 990.6 -2 82
2021-02-19 22:00:00 14.8 39 Sur 80 Sur 0 991.4 -- 71
2021-02-19 21:00:00 15 42 Sur 68 Sur 0 991.8 -- 69
2021-02-19 20:00:00 14.7 35 Sur 61 Sur 0 992.6 -- 70
2021-02-19 19:00:00 14.8 32 Sur 61 Sur 0 992.3 -- 69
2021-02-19 18:00:00 14.5 31 Sur 65 Sur 0 992.4 -- 72
2021-02-19 17:00:00 14.2 32 Sur 54 Sur 0 993.5 -2.4 81
2021-02-19 16:00:00 14.2 29 Sur 67 Sudeste 0.1 994.2 -- 82
2021-02-19 15:00:00 14.4 34 Sur 59 Sudoeste 0 994.9 -- 79
2021-02-19 14:00:00 14.3 31 Sur 65 Sur 0 995.9 -- 81
2021-02-19 13:00:00 14.6 31 Sur 68 Sur 0 996.2 -- 75
2021-02-19 12:00:00 14.9 41 Sur 72 Sur 0 996.4 -- 70
2021-02-19 11:00:00 14.8 39 Sur 59 Sur 0 996.2 -- 68
2021-02-19 10:00:00 13.4 28 Sur 50 Sur 0 996.5 -- 73
2021-02-19 09:00:00 12.8 29 Sur 55 Sur 0 996.2 -- 72
2021-02-19 08:00:00 12.2 36 Sur 58 Sur 0 996.4 -- 73
2021-02-19 07:00:00 11.7 25 Sur 55 Sur 0 997.7 -- 70
2021-02-19 06:00:00 11.7 18 Sudeste 50 Este 0 997.4 -- 71
2021-02-19 05:00:00 11.6 21 Sur 55 Sudeste 0 997.8 -- 69
2021-02-19 04:00:00 11.2 27 Sur 54 Sudoeste 0 998.9 -- 71
2021-02-19 03:00:00 11 27 Sur 55 Sur 0 998.9 -- 72
2021-02-19 02:00:00 10.7 26 Sur 58 Sur 0 1000.1 -- 72
2021-02-19 01:00:00 10.3 28 Sur 48 Sur 0 1000.1 -- 73
2021-02-19 00:00:00 10.1 21 Sur 41 Sur 0 1001.1 -- 75
2021-02-18 23:00:00 9.6 15 Sur 24 Sur 0 1001.7 -- 78
2021-02-18 22:00:00 9 9 Sur 26 Sur 0 1001.7 -- 81
2021-02-18 21:00:00 10.2 15 Sur 28 Sudoeste 0 1002 -- 74
2021-02-18 20:00:00 10.3 14 Sur 28 Sudoeste 0 1002 -- 71
2021-02-18 19:00:00 11 14 Sur 32 Sudoeste 0 1001.7 -- 69
2021-02-18 18:00:00 12.1 17 Sur 50 Sudoeste 0 1001.8 -- 66
2021-02-18 17:00:00 13.7 16 Sudoeste 26 Sudoeste 0 1001.5 -- 63
2021-02-18 16:00:00 12.7 10 Norte 17 Noroeste 0 1001.6 -- 72
2021-02-18 15:00:00 12.3 6 Norte 13 Norte 0 1001.7 -- 75
2021-02-18 14:00:00 13.2 8 Sur 15 Sur 0 1001.7 -- 70
2021-02-18 13:00:00 11.5 9 Sur 15 Sur 0 1002.3 -- 81
2021-02-18 12:00:00 10.5 5 Noroeste 15 Norte 0.4 1002.3 -- 83
2021-02-18 11:00:00 10.4 11 Oeste 28 Oeste 0 1001.9 -- 77
2021-02-18 10:00:00 9.7 10 Sudoeste 24 Sudoeste 0 1001.3 -- 83
2021-02-18 09:00:00 9.1 15 Oeste 26 Sudoeste 0 1000.1 -- 82
2021-02-18 08:00:00 9.1 13 Sudoeste 24 Sudoeste 0.5 999.3 -- 89
2021-02-18 07:00:00 9.4 18 Oeste 32 Oeste 0.5 998.8 -- 88
2021-02-18 06:00:00 9.8 10 Sudoeste 39 Oeste 1.3 997.6 -- 86
2021-02-18 05:00:00 10.1 22 Oeste 46 Oeste 1 997.3 -- 83
2021-02-18 04:00:00 10.5 27 Oeste 54 Oeste 0.7 997.2 -- 83
2021-02-18 03:00:00 13 31 Sur 55 Sudoeste 0 995.6 -- 70
2021-02-18 02:00:00 12.6 37 Sudoeste 55 Sudoeste 0 996.2 -- 71
2021-02-18 01:00:00 12.4 32 Sudoeste 46 Sudoeste 0 996.2 -- 74
2021-02-18 00:00:00 12.5 26 Sudoeste 52 Sudoeste 0 997.1 -- 76
2021-02-17 23:00:00 12.9 29 Sudoeste 52 Sudoeste 0 997.7 -- 72
2021-02-17 22:00:00 12.8 20 Sudoeste 37 Sudoeste 0 998.3 -- 77
2021-02-17 21:00:00 12.3 24 Sudoeste 42 Sur 0.1 998.6 -- 84
2021-02-17 20:00:00 12.1 27 Sur 54 Sur 2.8 998.5 -- 84
2021-02-17 19:00:00 12.3 18 Sur 42 Sur 2.9 998.8 -- 91
2021-02-17 18:00:00 13.3 21 Sur 42 Sur 0 999 -- 80
2021-02-17 17:00:00 14 23 Sur 52 Sur 0 1000.5 -- 76
2021-02-17 16:00:00 15.4 31 Sur 55 Sur 0 1001.2 -- 65
2021-02-17 15:00:00 15.5 25 Sur 65 Sudoeste 0 1002.3 -- 59
2021-02-17 14:00:00 15.2 35 Sur 59 Sur 0 1003.6 -- 56
2021-02-17 13:00:00 14.3 33 Sur 54 Sur 0 1004.7 -- 60
2021-02-17 12:00:00 13.8 20 Sur 48 Sur 0 1005.7 -- 65
2021-02-17 11:00:00 12.1 15 Sur 35 Sur 0 1006.3 -- 72
2021-02-17 10:00:00 10.1 17 Sudeste 26 Sur 0 1006.9 -- 77
2021-02-17 09:00:00 8.8 16 Sur 28 Sur 0 1007.2 -- 83
2021-02-17 08:00:00 8.8 20 Sur 30 Sur 0 1007.1 -- 81
2021-02-17 07:00:00 8.8 19 Sur 28 Sur 0 1007.6 -- 83
2021-02-17 06:00:00 9 21 Sur 32 Sur 0 1007.8 -- 84
2021-02-17 05:00:00 8.8 13 Sur 22 Sur 0 1008.4 -- 86
2021-02-17 04:00:00 9.3 14 Sur 22 Sur 0 1009 -- 84
2021-02-17 03:00:00 9.6 14 Sur 22 Sur 0 1009.4 -- 84
2021-02-17 02:00:00 9.8 14 Sur 22 Sur 0 1009.7 -- 85
2021-02-17 01:00:00 9.8 13 Sur 21 Sur 0 1010.2 -- 85
2021-02-17 00:00:00 10 14 Sur 26 Sur 0 1010.4 -- 84
2021-02-16 23:00:00 10.3 15 Sur 26 Sur 0 1010.5 -- 83
2021-02-16 22:00:00 10.5 15 Sur 26 Sudoeste 0 1010.4 -- 80
2021-02-16 21:00:00 10.7 16 Sur 24 Sur 0 1010.5 -- 77
2021-02-16 20:00:00 11.4 14 Sur 35 Sudoeste 0 1010.5 -- 72
2021-02-16 19:00:00 12.7 25 Sudoeste 45 Sudoeste 0 1009.8 -- 58
2021-02-16 18:00:00 14.5 27 Sudoeste 48 Sudoeste 0 1009.6 -- 50
2021-02-16 17:00:00 15.5 24 Sudoeste 45 Sudoeste 0 1009.6 -- 53
2021-02-16 16:00:00 15.7 29 Sudoeste 46 Sudoeste 0 1009.5 -- 55
2021-02-16 15:00:00 15.8 37 Sudoeste 50 Sudoeste 0 1009.8 -- 51
2021-02-16 14:00:00 15.1 17 Oeste 39 Sudoeste 0 1009.7 -- 58
2021-02-16 13:00:00 14.6 20 Oeste 33 Sudoeste 0 1010 -- 60
2021-02-16 12:00:00 13.8 15 Oeste 33 Oeste 0 1010 -- 70
2021-02-16 11:00:00 12.4 8 Sur 18 Sur 0 1009.6 -- 84
2021-02-16 10:00:00 10.7 8 Sur 22 Sur 0 1009.1 -- 88
2021-02-16 09:00:00 10 5 Sudeste 21 Oeste 0.9 1008.1 -- 94
2021-02-16 08:00:00 10 8 Sudoeste 33 Oeste 3.1 1007 -- 92
2021-02-16 07:00:00 10.1 19 Oeste 58 Oeste 7 1006.4 -- 91
2021-02-16 06:00:00 13.4 33 Sudoeste 63 Sudoeste 1 1004.8 -- 80
2021-02-16 05:00:00 14.5 36 Sur 54 Sudoeste 0 1004.4 -- 70
2021-02-16 04:00:00 14.7 32 Sur 72 Sudoeste 0 1005 -- 69
2021-02-16 03:00:00 14.7 33 Sur 67 Sudoeste 0 1005.4 -- 71
2021-02-16 02:00:00 14.9 35 Sur 65 Sur 0 1006.1 -- 71
2021-02-16 01:00:00 14.9 34 Sur 59 Sur 0 1006.9 -- 72
2021-02-16 00:00:00 14.7 25 Sur 54 Sudoeste 0 1007.3 -- 72
2021-02-15 23:00:00 14.2 23 Sur 59 Sudoeste 0 1007.4 -- 73
2021-02-15 22:00:00 14.4 27 Sur 58 Sudoeste 0 1006.9 -- 67
2021-02-15 21:00:00 15.6 19 Sur 48 Sur 0 1007.2 -- 55
2021-02-15 20:00:00 16.7 23 Sur 52 Sur 0 1007 -- 46
2021-02-15 19:00:00 17.9 29 Sur 63 Sur 0 1007 -- 39
2021-02-15 18:00:00 19.3 25 Sur 52 Sur 0 1007 -- 37
2021-02-15 17:00:00 19.6 31 Sudoeste 61 Sudoeste 0 1007.4 -- 40
2021-02-15 16:00:00 21.7 32 Sur 58 Sur 0 1006.8 -- 31
2021-02-15 15:00:00 21.3 35 Sur 59 Sur 0 1007.2 -- 31
2021-02-15 14:00:00 20.4 35 Sur 55 Sur 0 1008.3 -- 40
2021-02-15 13:00:00 18.8 31 Sur 63 Sur 0 1009.5 -- 49
2021-02-15 12:00:00 16.4 26 Sur 45 Sudeste 0 1010.2 -- 55
2021-02-15 11:00:00 14.3 11 Sur 22 Sur 0 1011 -- 62
2021-02-15 10:00:00 13.9 16 Sudeste 32 Sur 0 1011.2 -- 63
2021-02-15 09:00:00 13.9 18 Sur 35 Sudeste 0 1011 -- 64
2021-02-15 08:00:00 14.1 19 Sur 35 Sudeste 0 1010.2 -- 61
2021-02-15 07:00:00 14.4 17 Sur 37 Sur 0 1010.2 -- 59
2021-02-15 06:00:00 14.4 21 Sur 37 Sur 0 1009.5 -- 58
2021-02-15 05:00:00 14.1 12 Sur 46 Sur 0 1009.8 -- 58
2021-02-15 04:00:00 14.5 21 Sur 42 Sur 0 1010.5 -- 55
2021-02-15 03:00:00 14.8 25 Sur 45 Sur 0 1010.6 -- 53
2021-02-15 02:00:00 14.7 27 Sur 50 Sur 0 1010.2 -- 51
2021-02-15 01:00:00 14.8 26 Sur 55 Sur 0 1009.7 -- 45
2021-02-15 00:00:00 14.4 27 Sur 58 Sur 0 1009.9 -- 47
2021-02-14 23:00:00 14.6 34 Sur 59 Sur 0 1010 -- 43
2021-02-14 22:00:00 14.8 30 Sur 74 Sur 0 1009.8 -- 41
2021-02-14 21:00:00 14.4 25 Sur 48 Sur 0 1009.5 -- 59
2021-02-14 20:00:00 14.7 25 Sur 42 Sur 0 1009.1 -- 61
2021-02-14 19:00:00 15 23 Sur 46 Sudoeste 0 1008.9 0.5 62
2021-02-14 18:00:00 16.4 25 Sur 54 Sur 0 1008.4 -0.5 57
2021-02-14 17:00:00 17.3 32 Sur 58 Sur 0 1008.6 -- 51
2021-02-14 16:00:00 18.3 26 Sudoeste 65 Sudoeste 0 1008.4 -- 49
2021-02-14 15:00:00 18.2 30 Sur 54 Sur 0 1008.9 -- 49
2021-02-14 14:00:00 16.9 29 Sur 50 Sur 0 1009.3 -- 55
2021-02-14 13:00:00 15.7 36 Sur 61 Sur 0 1009.4 -- 58
2021-02-14 12:00:00 15.3 25 Sur 42 Sur 0 1009.6 -- 58
2021-02-14 11:00:00 14.9 16 Sur 39 Sur 0 1009.5 -- 59
2021-02-14 10:00:00 13.6 10 Sudeste 28 Sudeste 0 1009.6 -- 70
2021-02-14 09:00:00 12.8 19 Sudeste 32 Sur 0 1009.2 -- 76
2021-02-14 08:00:00 12.7 11 Sudeste 30 Sur 0 1008.7 -- 78
2021-02-14 07:00:00 12.8 23 Sudeste 42 Sudeste 0 1008.5 -- 78
2021-02-14 06:00:00 13.3 18 Sudeste 37 Sur 0 1009.1 -- 76
2021-02-14 05:00:00 12.8 27 Sur 46 Sur 0 1009 -- 81
2021-02-14 04:00:00 12.8 28 Sur 42 Sur 0 1009.6 -- 81
2021-02-14 03:00:00 12.7 25 Sur 39 Sur 0 1010.5 -- 81
2021-02-14 02:00:00 13.2 28 Sur 41 Sur 0 1010.9 -- 77
2021-02-14 01:00:00 13.4 28 Sur 41 Sur 0 1010.9 -- 77
2021-02-14 00:00:00 13.1 29 Sur 46 Sur 0 1011.2 -- 79
2021-02-13 23:00:00 12.9 22 Sur 39 Sur 0 1011.6 -- 82
2021-02-13 22:00:00 13.4 28 Sur 41 Sudoeste 0 1011.7 -- 84
2021-02-13 21:00:00 13.6 21 Sur 39 Sur 0 1011.5 -- 85
2021-02-13 20:00:00 13.6 22 Sur 39 Sur 0 1011.6 -- 88
2021-02-13 19:00:00 13.9 18 Sur 32 Sur 0 1011.7 -- 86
2021-02-13 18:00:00 14.4 19 Sur 41 Sur 0 1011.4 -- 84
2021-02-13 17:00:00 15.2 23 Sur 42 Sur 0 1010.7 -- 79
2021-02-13 16:00:00 15.2 19 Sur 30 Sur 0 1011.4 -- 80
2021-02-13 15:00:00 14.9 14 Sur 24 Sur 0 1011.8 -- 82
2021-02-13 14:00:00 14.6 13 Sur 28 Sudoeste 0 1012.1 -- 82
2021-02-13 13:00:00 14.6 23 Sur 37 Sur 0 1012.1 -- 81
2021-02-13 08:00:00 11.4 19 Sur 39 Sur 0 1009.7 -0.3 82
2021-02-13 07:00:00 11.4 21 Sur 41 Sudoeste 0 1009.3 -0.9 79
2021-02-13 06:00:00 12.1 27 Sur 42 Sur 0 1009.4 -1.1 75
2021-02-13 05:00:00 12 23 Sur 42 Sur 0 1010 -0.8 77
2021-02-13 04:00:00 11.9 17 Sur 39 Sur 0 1010.2 -0.6 78
2021-02-13 03:00:00 11.8 15 Sur 26 Sur 0 1010.5 -0.3 79
2021-02-13 02:00:00 11.7 13 Sur 24 Sur 0 1010.8 0 79
2021-02-13 01:00:00 11.9 11 Sur 28 Sur 0 1010.8 -0.3 78
2021-02-13 00:00:00 12 15 Sur 37 Sur 0 1010.8 -0.3 78
2021-02-12 23:00:00 11.8 16 Sur 32 Sur 0 1010.8 -0.3 79
2021-02-12 22:00:00 11.3 10 Sur 24 Sur 0 1011.1 0.6 83
2021-02-12 21:00:00 11.9 15 Sur 30 Sur 0 1011.1 1.1 79
2021-02-12 20:00:00 11.9 13 Sur 22 Sur 0 1011.1 1.4 79
2021-02-12 19:00:00 12.6 12 Sur 26 Sur 0 1010.5 1 74
2021-02-12 18:00:00 13.9 22 Sudoeste 30 Sudoeste 0 1010 0.3 65
2021-02-12 17:00:00 15.4 16 Sudoeste 30 Sudoeste 0 1009.7 0.1 59
2021-02-12 16:00:00 16.7 16 Sudoeste 30 Sudoeste 0 1009.5 -0.4 51
2021-02-12 15:00:00 16.4 21 Sudoeste 33 Sudoeste 0 1009.7 -0.1 54
2021-02-12 14:00:00 16.2 8 Oeste 37 Oeste 0 1009.6 0.2 57
2021-02-12 13:00:00 15 15 Sudoeste 26 Sudoeste 0 1009.9 1.3 67
2021-02-12 12:00:00 13.5 11 Oeste 24 Sudoeste 0 1009.8 2.3 74
2021-02-12 11:00:00 12.2 5 Sudoeste 15 Sudoeste 0 1009.4 2.8 83
2021-02-12 10:00:00 11.6 13 Sudoeste 22 Sudoeste 0 1008.6 2.7 83
2021-02-12 09:00:00 10.3 10 Sudoeste 17 Oeste 0 1007.5 -- 88
2021-02-12 08:00:00 10.8 9 Oeste 26 Oeste 0.1 1006.6 -- 89
2021-02-12 07:00:00 11.4 12 Oeste 22 Oeste 0 1005.9 -- 88
2021-02-12 06:00:00 11.1 12 Oeste 26 Oeste 0 1004.9 -- 89
2021-02-12 05:00:00 11 15 Oeste 45 Oeste 0.2 1004 -- 90
2021-02-12 04:00:00 11.9 29 Oeste 48 Oeste 1.6 1003.3 -- 88
2021-02-12 03:00:00 12.4 13 Oeste 26 Oeste 0 1002.4 -- 89
2021-02-12 02:00:00 12.6 14 Oeste 22 Oeste 0 1001.6 -- 87
2021-02-12 01:00:00 12.5 6 Sur 21 Sur 1.8 1001.2 -- 92
2021-02-12 00:00:00 12.2 11 Sur 15 Sur 0.3 1000.8 -- 96
2021-02-11 23:00:00 12.1 7 Sur 13 Sur 1.2 1000.6 -- 97
2021-02-11 22:00:00 12.3 4 Sur 15 Sudeste 3.5 1000.5 -- 96
2021-02-11 21:00:00 12.5 3 Noroeste 15 Sur 1.1 1000.9 -- 95
2021-02-11 20:00:00 12.9 8 Sur 15 Sudeste 0.5 1000.5 -- 91
2021-02-11 19:00:00 13.2 9 Sudeste 13 Sudeste 0.9 1000.5 -- 93
2021-02-11 18:00:00 13.3 6 Sudeste 11 Sudeste 0.5 1000.6 -- 94
2021-02-11 17:00:00 14 5 Sur 18 Sudeste 3.4 1000.5 -- 92
2021-02-11 16:00:00 13.8 6 Sudeste 15 Sudoeste 3.8 1000.4 -- 96
2021-02-11 15:00:00 14.2 10 Sur 28 Sudoeste 4.4 1001.1 -- 91
2021-02-11 14:00:00 14.8 15 Sur 37 Sur 0.4 1001 -- 87
2021-02-11 13:00:00 15 18 Sur 33 Sur 0.1 1001.2 -- 87
2021-02-11 12:00:00 13.7 12 Sur 21 Sudeste 3.8 1001.2 -- 97
2021-02-11 11:00:00 13.4 10 Sur 21 Sudeste 5 1001.2 -- 97
2021-02-11 10:00:00 13.6 0 Calma 18 Sur 2.9 1001.4 -- 93
2021-02-11 09:00:00 13.7 11 Sur 32 Sudoeste 3 1001 -- 89
2021-02-11 08:00:00 14.2 24 Sudoeste 37 Sudoeste 0 1000.7 -- 86
2021-02-11 07:00:00 14.2 18 Sur 30 Sur 0 1000 -- 88
2021-02-11 06:00:00 13.7 15 Sur 24 Sur 0 999.9 -- 89
2021-02-11 05:00:00 13.1 13 Sur 33 Sudoeste 0 1000.1 -- 90
2021-02-11 04:00:00 12.4 25 Sudoeste 35 Sur 0 1000.4 -- 90
2021-02-11 03:00:00 11.4 12 Sudeste 28 Sudeste 0 1000.2 -- 91
2021-02-11 02:00:00 11.1 21 Sudeste 32 Sudeste 0.5 1000.4 -- 89
2021-02-11 01:00:00 10.3 17 Sur 41 Sur 2.2 1000.3 -- 92
2021-02-11 00:00:00 10.6 29 Sur 50 Sur 0.2 999.9 -- 84
2021-02-10 23:00:00 10.3 30 Sur 41 Sur 0 1000.1 -- 82
2021-02-10 22:00:00 10.7 22 Sudeste 37 Sudeste 0 1000.4 -- 76
2021-02-10 21:00:00 11.3 19 Sur 48 Sur 0 1000.8 -- 68
2021-02-10 20:00:00 11.2 17 Sudeste 32 Sur 0 1000.6 -- 71
2021-02-10 19:00:00 11.3 13 Sur 22 Sur 0 1000.5 -- 68
2021-02-10 18:00:00 12.1 12 Sur 33 Sur 0 1000.3 -- 58
2021-02-10 17:00:00 13.3 17 Sur 30 Sudoeste 0 1000.2 -- 60
2021-02-10 16:00:00 13.9 17 Sudoeste 28 Sur 0 1000.1 -- 60
2021-02-10 15:00:00 14.1 14 Sudoeste 33 Oeste 0 1000.1 -- 59
2021-02-10 14:00:00 13.5 9 Oeste 21 Oeste 0 999.9 -- 58
2021-02-10 13:00:00 11.9 12 Oeste 32 Noroeste 0 1000.2 -- 66
2021-02-10 12:00:00 12 15 Oeste 28 Oeste 0 999.8 -- 68
2021-02-10 11:00:00 10 14 Sudoeste 18 Sudoeste 0 998.9 -- 82
2021-02-10 10:00:00 8.1 14 Sudoeste 18 Sudoeste 0.1 998.2 -- 90
2021-02-10 09:00:00 8.3 11 Sudoeste 28 Noroeste 0 997.1 -- 88
2021-02-10 08:00:00 8.3 13 Oeste 24 Oeste 0.2 996 -- 87
2021-02-10 07:00:00 8.9 16 Oeste 32 Oeste 0 994.7 -- 77
2021-02-10 06:00:00 8.5 17 Oeste 26 Sudoeste 0 993.4 -- 77
2021-02-10 05:00:00 8.1 14 Sudoeste 32 Oeste 0 992.1 -- 82
2021-02-10 04:00:00 7.8 18 Oeste 32 Oeste 0 991.2 -- 86
2021-02-10 03:00:00 7.2 14 Oeste 22 Oeste 0 989.9 -- 89
2021-02-10 02:00:00 7.5 5 Oeste 32 Noroeste 0.1 988.7 -- 87
2021-02-10 01:00:00 7.9 12 Noroeste 30 Sudoeste 2.6 987.2 -- 89
2021-02-10 00:00:00 7.7 5 Oeste 15 Sur 0.2 986 -- 87
2021-02-09 23:00:00 7.5 10 Sur 33 Oeste 3.9 985.4 -- 90
2021-02-09 22:00:00 8 15 Sur 22 Sudoeste 0 985.3 -- 83
2021-02-09 21:00:00 7.5 13 Sur 18 Sur 0 985.6 -- 85
2021-02-09 20:00:00 7.4 12 Sur 22 Sudoeste 0 985.4 -- 84
2021-02-09 19:00:00 7.8 15 Sur 32 Sudoeste 0 984.9 -- 80
2021-02-09 18:00:00 8.4 28 Sudoeste 46 Sudoeste 0 984.4 -- 76
2021-02-09 17:00:00 9.7 12 Sur 24 Sudoeste 0 984 -- 78
2021-02-09 16:00:00 9.8 9 Oeste 50 Sudoeste 0.2 984.3 -- 75
2021-02-09 15:00:00 11 14 Sudoeste 39 Sudoeste 0 984.5 -- 71
2021-02-09 14:00:00 10.8 25 Oeste 45 Oeste 0 984.4 -- 71
2021-02-09 13:00:00 9.6 22 Oeste 45 Oeste 0.2 984.6 -- 78
2021-02-09 12:00:00 9.1 20 Sudoeste 42 Oeste 0.2 984 -- 81
2021-02-09 11:00:00 7.5 23 Oeste 48 Oeste 1.9 983.6 -- 86
2021-02-09 10:00:00 9.1 23 Oeste 42 Oeste 0.2 982.3 -- 78
2021-02-09 09:00:00 9.5 25 Oeste 50 Sudoeste 0.7 981.6 -- 85
2021-02-09 08:00:00 10.4 29 Sudoeste 65 Sudoeste 0.5 980.5 -- 67
2021-02-09 07:00:00 11.1 26 Sudoeste 67 Oeste 0.8 981.3 -- 81
2021-02-09 06:00:00 11.8 29 Sudoeste 48 Sudoeste 2.1 981.2 -- 76
2021-02-09 05:00:00 11 31 Sudoeste 58 Sudoeste 2.6 981.6 -- 88
2021-02-09 04:00:00 10.7 20 Sur 32 Sur 0.3 982.7 -- 88
2021-02-09 03:00:00 10.2 18 Sur 37 Sur 0 984.6 -- 85
2021-02-09 02:00:00 9.4 17 Sur 41 Sur 0 986.5 -- 86
2021-02-09 01:00:00 9.6 25 Sur 52 Sur 0 987.7 -- 82
2021-02-09 00:00:00 10 33 Sur 52 Sudoeste 0 988.5 -- 80
2021-02-08 23:00:00 10.4 27 Sudoeste 41 Sudoeste 0 989.3 -- 79
2021-02-08 22:00:00 10.3 16 Sur 32 Sur 0 989.9 -- 81
2021-02-08 21:00:00 10.1 9 Sur 24 Sur 0 990.4 -- 82
2021-02-08 20:00:00 10.2 15 Sudoeste 33 Oeste 0 990.7 -- 83
2021-02-08 19:00:00 10.6 13 Oeste 24 Oeste 0.4 990.3 -- 87
2021-02-08 18:00:00 10.8 7 Oeste 30 Oeste 0.4 990.2 -- 91
2021-02-08 17:00:00 11.2 14 Oeste 39 Oeste 0.4 990.1 -- 88
2021-02-08 16:00:00 12 22 Noroeste 42 Noroeste 0 989.5 -- 79
2021-02-08 15:00:00 12 23 Oeste 42 Noroeste 0 988.9 -- 80
2021-02-08 14:00:00 11.4 17 Noroeste 39 Noroeste 1.3 988.5 -- 88
2021-02-08 13:00:00 10.8 19 Oeste 33 Sudoeste 1 988.5 -- 87
2021-02-08 12:00:00 9.8 14 Oeste 30 Sudoeste 0.6 987.7 -- 87
2021-02-08 11:00:00 9.4 14 Oeste 37 Oeste 0.4 987 -- 85
2021-02-08 10:00:00 8.6 19 Sur 30 Sur 0.9 986.2 -- 85
2021-02-08 09:00:00 8 17 Sur 24 Sudoeste 0 986.1 -- 88
2021-02-08 08:00:00 7.7 10 Sur 21 Sudoeste 0 985.8 -- 88
2021-02-08 07:00:00 7.9 12 Sur 17 Sur 0 985.6 -- 91
2021-02-08 06:00:00 7.7 10 Sur 15 Sudoeste 0 986 -- 91
2021-02-08 05:00:00 8.6 11 Sudoeste 24 Sudoeste 0 986.1 -- 86
2021-02-08 04:00:00 9.8 16 Sudoeste 28 Oeste 0.1 986.7 -- 83
2021-02-08 03:00:00 9.9 16 Sudoeste 32 Sudoeste 0.1 986.8 -- 83
2021-02-08 02:00:00 10.1 13 Oeste 35 Oeste 0 987 -- 85
2021-02-08 01:00:00 10.6 17 Sudoeste 32 Oeste 0 986.8 -- 85
2021-02-08 00:00:00 10 13 Sudoeste 28 Oeste 0.1 986.6 -- 88
2021-02-07 23:00:00 10.2 18 Oeste 46 Oeste 6.6 986.7 -- 89
2021-02-07 22:00:00 9.8 14 Sur 18 Sur 7.2 986.5 -- 96
2021-02-07 21:00:00 9.8 13 Sur 35 Sur 4 986.6 -- 95
2021-02-07 20:00:00 10.3 13 Oeste 37 Sur 0.7 988.2 -- 88
2021-02-07 19:00:00 10 24 Sur 52 Sudoeste 0.9 987.6 -- 88
2021-02-07 18:00:00 10.4 27 Sur 55 Sur 0 988.4 -- 81
2021-02-07 17:00:00 10.6 27 Sur 45 Sur 0 989.4 -- 79
2021-02-07 16:00:00 9.9 24 Sur 58 Sur 0 990.7 -- 79
2021-02-07 15:00:00 10.2 34 Sur 52 Sudoeste 0 991.6 -- 78
2021-02-07 14:00:00 8.7 34 Sur 61 Sudoeste 0 992.6 -- 82
2021-02-07 13:00:00 7.8 34 Sudoeste 52 Sudoeste 0 993.6 -- 84
2021-02-07 12:00:00 7.2 21 Sur 45 Sudoeste 0.2 994.7 -- 85
2021-02-07 11:00:00 5.4 15 Sudeste 30 Sur 0.3 995.6 -- 90
2021-02-07 10:00:00 5.1 19 Sur 28 Sur 0.6 996.3 -- 90
2021-02-07 09:00:00 4.9 9 Sur 24 Sudoeste 0.4 996.6 -- 91
2021-02-07 08:00:00 5.8 18 Sudoeste 28 Sudoeste 0 996.9 -- 85
2021-02-07 07:00:00 5.4 14 Sur 21 Sur 0 997.2 -- 87
2021-02-07 06:00:00 5.1 13 Sur 18 Sur 0 997.7 -- 90
2021-02-07 05:00:00 4.8 12 Sur 17 Sur 0 998.2 -- 95
2021-02-07 04:00:00 4.8 10 Sur 15 Sur 0 998.9 -- 95
2021-02-07 03:00:00 4.8 11 Sur 15 Sur 0 999.2 -- 95
2021-02-07 02:00:00 5.3 9 Sur 15 Sudoeste 0 999.6 -- 92
2021-02-07 01:00:00 4.7 12 Sur 15 Sur 0 1000 -- 96
2021-02-07 00:00:00 5.2 10 Este 15 Este 0.1 1000.1 -- 94
2021-02-06 23:00:00 5.3 9 Sur 21 Este 0.2 1000.1 -- 93
2021-02-06 22:00:00 6.4 6 Sur 9 Sur 0 999.9 -- 90
2021-02-06 21:00:00 7.5 6 Nordeste 15 Nordeste 0 999.9 -- 76
2021-02-06 20:00:00 7.4 3 Sur 13 Nordeste 0 999.4 -- 78
2021-02-06 19:00:00 7.8 3 Norte 26 Norte 0 998.9 -- 79
2021-02-06 18:00:00 8.7 19 Norte 30 Norte 0 998.1 -- 71
2021-02-06 17:00:00 10.2 14 Norte 37 Norte 0 997.9 -- 58
2021-02-06 16:00:00 10.6 18 Norte 37 Norte 0 997.6 -- 58
2021-02-06 15:00:00 10.1 22 Norte 39 Norte 0 997.4 -- 64
2021-02-06 14:00:00 10 19 Nordeste 37 Norte 0 997.7 -- 59
2021-02-06 13:00:00 9.8 19 Norte 37 Norte 0 998.2 -- 66
2021-02-06 12:00:00 10 17 Norte 39 Nordeste 0 997.9 -- 67
2021-02-06 11:00:00 9.4 21 Nordeste 35 Nordeste 0 997.6 -- 75
2021-02-06 10:00:00 8.6 21 Nordeste 35 Nordeste 0 997.1 -- 79
2021-02-06 09:00:00 8.1 18 Nordeste 46 Nordeste 0 996.6 -- 85
2021-02-06 08:00:00 8.8 21 Nordeste 41 Norte 0 995.7 -- 74
2021-02-06 07:00:00 9.2 19 Norte 45 Norte 0 995.1 -- 75
2021-02-06 06:00:00 9.6 20 Norte 41 Norte 0 995.1 -- 71
2021-02-06 05:00:00 9.6 20 Nordeste 41 Norte 0 995.1 -- 70
2021-02-06 04:00:00 9.5 24 Nordeste 46 Nordeste 0 995.3 -- 76
2021-02-06 03:00:00 9.5 18 Norte 35 Norte 0 995.4 -- 76
2021-02-06 02:00:00 9.2 14 Nordeste 33 Norte 0 995.9 -- 82
2021-02-06 01:00:00 9.1 15 Norte 35 Nordeste 0 996.2 -- 80
2021-02-06 00:00:00 8.9 15 Norte 32 Norte 0.2 996.4 -- 89
2021-02-05 23:00:00 9.2 16 Norte 33 Norte 0.1 996.4 -- 89
2021-02-05 22:00:00 9.5 12 Norte 32 Nordeste 0.1 996.2 -- 85
2021-02-05 21:00:00 9.8 13 Nordeste 32 Nordeste 0 996.1 -- 83
2021-02-05 20:00:00 10.1 17 Nordeste 37 Nordeste 0 995.9 -- 82
2021-02-05 19:00:00 10.3 12 Nordeste 33 Nordeste 0 995.6 -- 80
2021-02-05 18:00:00 10.6 14 Norte 35 Nordeste 0 995.4 -- 80
2021-02-05 17:00:00 11 17 Norte 32 Nordeste 0 995.4 -- 79
2021-02-05 16:00:00 10.8 15 Norte 37 Norte 0 995.7 -- 82
2021-02-05 15:00:00 11.3 10 Norte 28 Nordeste 0 996.1 -- 83
2021-02-05 14:00:00 11 14 Nordeste 26 Nordeste 0 996.9 -- 87
2021-02-05 13:00:00 10.5 12 Norte 21 Norte 0 997.8 -- 91
2021-02-05 12:00:00 9.1 7 Norte 13 Norte 0 998 -- 96
2021-02-05 11:00:00 8.2 0 Calma 9 Sur 0 998.3 -- 98
2021-02-05 10:00:00 7.5 0 Calma 4 Noroeste 0 998.4 -- 98
2021-02-05 09:00:00 7.3 2 Sur 8 Sur 0 998.1 -- 98
2021-02-05 08:00:00 7.3 4 Sur 5 Sur 0 998.3 -- 98
2021-02-05 07:00:00 7.2 3 Sur 8 Sur 0 998.3 -- 98
2021-02-05 06:00:00 7.8 4 Sur 11 Sur 0 998.4 -- 98
2021-02-05 05:00:00 7.5 4 Sur 9 Sur 0 998.3 -- 98
2021-02-05 04:00:00 7.6 5 Sur -- -- 0 998.6 -- 98
2021-02-05 03:00:00 8.1 3 Oeste -- -- 0 998.4 -- 98
2021-02-05 02:00:00 8.4 2 Sudeste 4 Este 0 998.4 -- 97
2021-02-05 01:00:00 8.6 0 Calma 8 Sudeste 0 999 -- 97
2021-02-05 00:00:00 9 5 Sur 8 Sur 0 999.3 -- 96
2021-02-04 23:00:00 8.9 3 Sur 8 Oeste 1 999 -- 95
2021-02-04 22:00:00 8.9 4 Noroeste 11 Norte 1.7 998.6 -- 95
2021-02-04 21:00:00 9.3 2 Noroeste 13 Norte 0 998.4 -- 94
2021-02-04 20:00:00 9.5 6 Noroeste 15 Noroeste 0.4 998.1 -- 95
2021-02-04 19:00:00 9.8 10 Oeste 28 Oeste 3 997.3 -- 91
2021-02-04 18:00:00 11.3 14 Noroeste 24 Noroeste 0.5 996.5 -- 84
2021-02-04 17:00:00 13.7 6 Sur 13 Sur 0 996 -- 62
2021-02-04 16:00:00 14.3 7 Sur 17 Sur 0 996 -- 58
2021-02-04 15:00:00 15 10 Sur 18 Sudeste 0 996.2 -- 55
2021-02-04 14:00:00 14 14 Sur 24 Sur 0 996.8 -- 61
2021-02-04 13:00:00 13.5 16 Sur 22 Sur 0 997.7 -- 67
2021-02-04 12:00:00 12.3 12 Sur 17 Sur 0 997.5 -- 73
2021-02-04 11:00:00 10.4 11 Este 21 Sudeste 0 997.5 -- 78
2021-02-04 10:00:00 7.4 11 Sudeste 21 Sur 0 997.3 -- 90
2021-02-04 09:00:00 8 16 Sur 21 Sur 0 996.7 -- 89
2021-02-04 08:00:00 8.2 15 Sur 18 Sur 0 996.6 -- 89
2021-02-04 07:00:00 7.7 10 Sur 15 Sur 0 996.3 -- 91
2021-02-04 06:00:00 7.8 7 Sudeste 11 Sudeste 0 996.1 -- 92
2021-02-04 05:00:00 8.3 8 Sudeste 17 Sur 0 995.9 -- 90
2021-02-04 04:00:00 8.7 11 Sudeste 22 Sudeste 0 996 -- 89
2021-02-04 03:00:00 8.8 10 Sur 22 Sudeste 0 995.6 -- 88
2021-02-04 02:00:00 9.1 15 Sudeste 24 Sudeste 0 995.7 -- 88
2021-02-04 01:00:00 9.7 12 Sur 52 Sudoeste 0.3 995.6 -- 84
2021-02-04 00:00:00 10 12 Sur 37 Sudoeste 0.4 995.4 -- 86
2021-02-03 23:00:00 10.3 27 Sudoeste 46 Sur 0.2 994.9 -- 82
2021-02-03 22:00:00 10.8 15 Sur 32 Sudoeste 0 994.2 -- 78
2021-02-03 21:00:00 11 16 Sur 37 Sur 0 994.8 -- 77
2021-02-03 20:00:00 11.2 15 Sur 41 Sur 0 994.4 -- 74
2021-02-03 19:00:00 12.1 27 Sudoeste 61 Sudoeste 0 994.3 -- 70
2021-02-03 18:00:00 12.4 29 Sudoeste 65 Sudoeste 0 993.8 -- 69
2021-02-03 17:00:00 13.6 32 Sudoeste 55 Sudoeste 0 994 -- 66
2021-02-03 16:00:00 13.4 22 Sur 52 Sudoeste 0 994.9 -- 67
2021-02-03 15:00:00 13.7 24 Sudoeste 55 Sudoeste 0.3 995.7 -- 63
2021-02-03 14:00:00 14.6 31 Sudoeste 48 Sudoeste 0 996.1 -- 65
2021-02-03 13:00:00 12.8 13 Sudoeste 32 Sudoeste 0.6 996.7 -- 71
2021-02-03 12:00:00 12.9 25 Sudoeste 39 Sudoeste 0 996.8 -- 72
2021-02-03 11:00:00 12.5 17 Sudoeste 35 Sudoeste 0 996.6 -- 74
2021-02-03 10:00:00 11.4 16 Sudoeste 30 Sudoeste 0 996 -- 77
2021-02-03 09:00:00 10.8 14 Sudoeste 24 Sudoeste 0.2 995.4 -- 79
2021-02-03 08:00:00 10 8 Sur 21 Sudoeste 0 994.7 -- 86
2021-02-03 07:00:00 10.1 23 Sudoeste 46 Sudoeste 1.1 994.7 -- 82
2021-02-03 06:00:00 11 19 Sudoeste 45 Sudoeste 0 994.3 -- 75
2021-02-03 05:00:00 11.4 26 Sudoeste 41 Sudoeste 0 993.6 -- 75
2021-02-03 04:00:00 11.5 30 Sudoeste 48 Sudoeste 0 993.5 -- 77
2021-02-03 03:00:00 12.2 23 Sudoeste 54 Oeste 0 993.4 -- 72
2021-02-03 02:00:00 13.1 33 Sudoeste 58 Oeste 0 993.4 -- 68
2021-02-03 01:00:00 13.6 31 Sudoeste 58 Sudoeste 0 992.5 -- 72
2021-02-03 00:00:00 12.7 18 Sudoeste 48 Sudoeste 0.6 992.1 -- 88
2021-02-02 23:00:00 13.2 32 Sudoeste 50 Sudoeste 0 991.9 -- 83
2021-02-02 22:00:00 13.8 39 Sudoeste 65 Sudoeste 0 991.5 -- 79
2021-02-02 21:00:00 14 32 Sudoeste 55 Sudoeste 0.2 992.2 -- 81
2021-02-02 20:00:00 13.1 24 Sur 42 Sur 2.3 992.2 -- 92
2021-02-02 19:00:00 13.2 24 Sur 41 Sur 2 993.9 -- 90
2021-02-02 18:00:00 13.7 26 Sur 54 Sur 1.3 994.2 -- 87
2021-02-02 17:00:00 13.8 30 Sur 58 Sudoeste 2.6 994.1 -- 86
2021-02-02 16:00:00 14.1 26 Sudoeste 48 Sur 0.3 995.1 -- 87
2021-02-02 15:00:00 14.9 32 Sudoeste 50 Sudoeste 0 995.4 -- 86
2021-02-02 14:00:00 15.2 22 Sur 41 Sudoeste 0.1 996.2 -- 87
2021-02-02 13:00:00 15.1 26 Sudoeste 46 Sudoeste 0.1 997.6 -- 87
2021-02-02 12:00:00 15.1 23 Sudoeste 39 Sur 0.4 998.2 -- 87
2021-02-02 11:00:00 14.2 26 Sudoeste 46 Sudoeste 0.2 998.4 -- 87
2021-02-02 10:00:00 13.8 22 Sudoeste 37 Sudoeste 0.4 997.9 -- 90
2021-02-02 09:00:00 14 25 Sur 48 Sur 0 997.7 -- 87
2021-02-02 08:00:00 13.6 26 Sudoeste 42 Sur 0.8 997.9 -- 89
2021-02-02 07:00:00 13.5 30 Sur 52 Sudoeste 1.1 997.1 -- 87
2021-02-02 06:00:00 14.1 30 Sudoeste 55 Sudoeste 0 998.3 -- 82
2021-02-02 05:00:00 13.6 19 Sur 42 Sudoeste 0 998.5 -- 85
2021-02-02 04:00:00 13.9 22 Sudoeste 45 Sudoeste 0 999.6 -- 81
2021-02-02 03:00:00 13.7 18 Sudoeste 37 Sudoeste 0 1000.2 -- 83
2021-02-02 02:00:00 13.5 21 Sur 48 Sudoeste 0 1001 -- 83
2021-02-02 01:00:00 13.9 30 Sudoeste 55 Sudoeste 0 1001.2 -- 78
2021-02-02 00:00:00 14 35 Sudoeste 58 Sudoeste 0 1000.4 -- 77
2021-02-01 23:00:00 13.8 18 Sudoeste 41 Sudoeste 0 1001.2 -- 80
2021-02-01 22:00:00 14.2 16 Oeste 35 Oeste 0 1001.3 -- 78
2021-02-01 21:00:00 14.6 21 Oeste 41 Sudoeste 0 1001 -- 75
2021-02-01 20:00:00 13.4 11 Oeste 28 Sudoeste 0 1000.8 -- 89
2021-02-01 19:00:00 13.1 15 Sur 32 Sur 0 1001.2 -- 91
2021-02-01 18:00:00 13.6 19 Sur 45 Sur 0 1001.3 -- 85
2021-02-01 17:00:00 13.7 33 Sudoeste 50 Sudoeste 0 1001 -- 83
2021-02-01 16:00:00 14.6 35 Sudoeste 54 Sur 0 1001.3 -- 79
2021-02-01 15:00:00 14.7 28 Sudoeste 54 Sudoeste 0 1001.6 -- 77
2021-02-01 14:00:00 14.6 28 Sudoeste 42 Sudoeste 0 1002.2 -- 76
2021-02-01 13:00:00 14.2 23 Sudoeste 35 Sudoeste 0 1003.6 -- 79
2021-02-01 12:00:00 14.1 17 Oeste 32 Oeste 0 1004.1 -- 80
2021-02-01 11:00:00 14 15 Sudoeste 30 Sudoeste 0 1003 -- 81
2021-02-01 10:00:00 13.3 11 Sudoeste 28 Oeste 0 1003.2 -- 83
2021-02-01 09:00:00 13.4 14 Oeste 39 Oeste 0 1002.6 -- 80
2021-02-01 08:00:00 13.4 17 Oeste 33 Oeste 0 1002 -- 79
2021-02-01 07:00:00 13.3 17 Oeste 42 Sudoeste 0 1001.8 -- 76
2021-02-01 06:00:00 13.4 22 Oeste 45 Oeste 0 1001.6 -- 75
2021-02-01 05:00:00 13.5 20 Oeste 48 Sudoeste 0 1001.3 -- 75
2021-02-01 04:00:00 13.4 18 Oeste 39 Oeste 0 1001.6 -- 75
2021-02-01 03:00:00 13.5 16 Oeste 41 Oeste 0 1001.8 -- 74
2021-02-01 02:00:00 13.6 18 Oeste 35 Oeste 0 1001.5 -- 74
2021-02-01 01:00:00 13.8 19 Oeste 39 Oeste 0 1001.1 -- 72
2021-02-01 00:00:00 13.8 23 Oeste 48 Oeste 0 1000.9 -- 74
2021-01-31 23:00:00 13.8 21 Oeste 58 Oeste 0 1000.3 -- 74
2021-01-31 22:00:00 14.1 23 Oeste 55 Noroeste 0 999.4 -- 71
2021-01-31 21:00:00 14.2 21 Oeste 52 Oeste 0 999.2 -- 72
2021-01-31 20:00:00 14.1 24 Oeste 50 Oeste 0 999.1 -- 75
2021-01-31 19:00:00 14.5 32 Oeste 54 Oeste 0 998.3 -- 73
2021-01-31 18:00:00 14.4 21 Oeste 52 Sudoeste 0 998.4 -- 79
2021-01-31 17:00:00 14.8 27 Oeste 58 Oeste 0 998.5 -- 78
2021-01-31 16:00:00 15.7 27 Oeste 52 Oeste 0 998.3 -- 73
2021-01-31 15:00:00 17.1 26 Sudoeste 46 Sudoeste 0 998 -- 70
2021-01-31 14:00:00 17.2 23 Oeste 42 Sudoeste 0 998.8 -- 71
2021-01-31 13:00:00 15.6 18 Sudoeste 35 Sudoeste 0 999.6 -- 79
2021-01-31 12:00:00 14.9 20 Sudoeste 42 Oeste 0 1000 -- 79
2021-01-31 11:00:00 14.3 17 Oeste 42 Noroeste 0 1000 -- 86
2021-01-31 10:00:00 14.2 23 Oeste 45 Oeste 0 999.8 -- 88
2021-01-31 09:00:00 12.9 13 Sudoeste 26 Oeste 0.8 999.6 -- 95
2021-01-31 08:00:00 12 17 Sudoeste 30 Sudoeste 2.5 999.4 -- 94
2021-01-31 07:00:00 11.7 19 Sur 30 Sur 1.8 999.5 -- 94
2021-01-31 06:00:00 11.4 13 Sur 22 Sudoeste 1.4 999.9 -- 93
2021-01-31 05:00:00 10.1 10 Sur 18 Sur 3 1000.8 -- 97
2021-01-31 04:00:00 10.1 8 Sudeste 18 Sur 1.4 1001.8 -- 96
2021-01-31 03:00:00 11 8 Sur 24 Sudoeste 1.4 1002.4 -- 89
2021-01-31 02:00:00 11.4 13 Sudoeste 28 Oeste 0 1003.1 -- 81
2021-01-31 01:00:00 11.6 12 Oeste 33 Oeste 0 1003.4 -- 75
2021-01-31 00:00:00 11.6 16 Oeste 39 Oeste 0 1003.2 -- 74